createdAt,value
2019-02-02T00:00:38.253Z,53.30
2019-02-02T00:01:37.724Z,53.40
2019-02-02T00:02:37.435Z,55.50
2019-02-02T00:03:37.471Z,56.60
2019-02-02T00:04:37.842Z,54.90
2019-02-02T00:05:37.661Z,54.60
2019-02-02T00:06:37.456Z,55.90
2019-02-02T00:07:37.459Z,56.70
2019-02-02T00:08:38.146Z,57.40
2019-02-02T00:09:37.466Z,56.30
2019-02-02T00:10:38.239Z,57.80
2019-02-02T00:11:37.479Z,57.50
2019-02-02T00:12:37.757Z,58.60
2019-02-02T00:13:37.475Z,59.10
2019-02-02T00:14:37.580Z,56.70
2019-02-02T00:15:37.470Z,58.80
2019-02-02T00:16:37.503Z,59.50
2019-02-02T00:17:37.503Z,61.50
2019-02-02T00:18:37.477Z,59.10
2019-02-02T00:19:37.478Z,61.80
2019-02-02T00:20:37.498Z,61.40
2019-02-02T00:21:37.785Z,60.60
2019-02-02T00:22:37.858Z,60.80
2019-02-02T00:23:37.529Z,63.90
2019-02-02T00:24:37.528Z,64.10
2019-02-02T00:25:37.507Z,64.50
2019-02-02T00:26:37.498Z,63.90
2019-02-02T00:27:41.615Z,65.30
2019-02-02T00:28:37.505Z,66.20
2019-02-02T00:29:37.552Z,61.80
2019-02-02T00:30:37.525Z,63.70
2019-02-02T00:31:37.544Z,65.00
2019-02-02T00:32:37.541Z,63.50
2019-02-02T00:33:37.548Z,64.00
2019-02-02T00:34:37.557Z,64.20
2019-02-02T00:35:37.553Z,63.90
2019-02-02T00:36:37.519Z,64.30
2019-02-02T00:37:37.569Z,62.40
2019-02-02T00:38:37.541Z,65.90
2019-02-02T00:39:37.534Z,64.50
2019-02-02T00:40:37.539Z,65.10
2019-02-02T00:41:37.552Z,62.90
2019-02-02T00:42:37.551Z,64.70
2019-02-02T00:43:38.550Z,64.70
2019-02-02T00:44:37.535Z,63.20
2019-02-02T00:45:37.562Z,63.50
2019-02-02T00:46:37.532Z,66.50
2019-02-02T00:47:37.556Z,70.30
2019-02-02T00:48:37.605Z,68.40
2019-02-02T00:49:37.552Z,65.00
2019-02-02T00:50:37.557Z,67.60
2019-02-02T00:51:37.578Z,69.00
2019-02-02T00:52:37.633Z,67.90
2019-02-02T00:53:37.624Z,68.00
2019-02-02T00:54:37.564Z,68.20
2019-02-02T00:55:37.596Z,69.60
2019-02-02T00:56:37.566Z,70.20
2019-02-02T00:57:37.570Z,68.50
2019-02-02T00:58:37.570Z,70.40
2019-02-02T00:59:37.619Z,71.30
2019-02-02T01:00:37.585Z,70.40
2019-02-02T01:01:37.577Z,72.00
2019-02-02T01:02:37.585Z,71.70
2019-02-02T01:03:37.589Z,72.50
2019-02-02T01:04:37.614Z,73.70
2019-02-02T01:05:37.791Z,76.30
2019-02-02T01:06:37.613Z,77.00
2019-02-02T01:07:37.614Z,74.90
2019-02-02T01:08:37.597Z,79.00
2019-02-02T01:09:37.587Z,76.60
2019-02-02T01:10:38.084Z,79.80
2019-02-02T01:11:37.604Z,77.40
2019-02-02T01:12:37.603Z,83.30
2019-02-02T01:13:37.618Z,81.10
2019-02-02T01:14:37.678Z,78.10
2019-02-02T01:15:37.618Z,80.40
2019-02-02T01:16:37.638Z,81.80
2019-02-02T01:17:37.604Z,81.30
2019-02-02T01:18:37.799Z,79.60
2019-02-02T01:19:37.617Z,79.80
2019-02-02T01:20:37.688Z,80.70
2019-02-02T01:21:37.709Z,79.30
2019-02-02T01:22:37.794Z,84.90
2019-02-02T01:23:37.663Z,81.80
2019-02-02T01:24:37.653Z,86.10
2019-02-02T01:25:37.691Z,86.20
2019-02-02T01:26:37.647Z,83.80
2019-02-02T01:27:37.763Z,80.80
2019-02-02T01:28:37.669Z,80.60
2019-02-02T01:29:37.649Z,79.70
2019-02-02T01:30:37.639Z,82.10
2019-02-02T01:31:37.792Z,83.10
2019-02-02T01:32:37.672Z,84.60
2019-02-02T01:33:37.662Z,84.50
2019-02-02T01:34:37.681Z,82.50
2019-02-02T01:35:37.696Z,89.80
2019-02-02T01:36:37.683Z,85.70
2019-02-02T01:37:37.660Z,85.10
2019-02-02T01:38:37.692Z,86.50
2019-02-02T01:39:37.692Z,85.70
2019-02-02T01:40:37.672Z,88.10
2019-02-02T01:41:37.727Z,85.80
2019-02-02T01:42:37.672Z,87.80
2019-02-02T01:43:37.744Z,89.90
2019-02-02T01:44:37.708Z,85.60
2019-02-02T01:45:37.725Z,88.60
2019-02-02T01:46:37.712Z,88.10
2019-02-02T01:47:37.696Z,90.90
2019-02-02T01:48:37.738Z,86.80
2019-02-02T01:49:37.729Z,88.60
2019-02-02T01:50:37.710Z,88.70
2019-02-02T01:51:37.690Z,87.50
2019-02-02T01:52:37.727Z,90.80
2019-02-02T01:53:37.732Z,87.80
2019-02-02T01:54:38.413Z,89.20
2019-02-02T01:55:37.728Z,89.10
2019-02-02T01:56:37.739Z,91.10
2019-02-02T01:57:37.730Z,91.60
2019-02-02T01:58:37.769Z,90.80
2019-02-02T01:59:37.717Z,92.60
2019-02-02T02:00:37.700Z,91.60
2019-02-02T02:01:37.724Z,92.70
2019-02-02T02:02:37.736Z,91.00
2019-02-02T02:03:37.759Z,89.80
2019-02-02T02:04:37.749Z,94.90
2019-02-02T02:05:37.815Z,94.60
2019-02-02T02:06:37.736Z,96.10
2019-02-02T02:07:37.761Z,93.20
2019-02-02T02:08:37.732Z,91.20
2019-02-02T02:09:37.868Z,98.70
2019-02-02T02:10:37.762Z,96.60
2019-02-02T02:11:37.734Z,91.80
2019-02-02T02:12:37.777Z,96.50
2019-02-02T02:13:37.746Z,94.00
2019-02-02T02:14:37.756Z,94.10
2019-02-02T02:15:37.790Z,91.50
2019-02-02T02:16:37.821Z,96.70
2019-02-02T02:17:37.770Z,98.80
2019-02-02T02:18:37.776Z,99.80
2019-02-02T02:19:37.779Z,94.20
2019-02-02T02:20:37.823Z,96.80
2019-02-02T02:21:37.784Z,97.50
2019-02-02T02:22:41.233Z,96.00
2019-02-02T02:23:37.799Z,103.60
2019-02-02T02:24:37.779Z,99.50
2019-02-02T02:25:37.766Z,99.70
2019-02-02T02:26:37.818Z,101.10
2019-02-02T02:27:37.787Z,98.90
2019-02-02T02:28:37.762Z,106.10
2019-02-02T02:29:37.781Z,98.00
2019-02-02T02:30:37.820Z,101.90
2019-02-02T02:31:37.826Z,103.40
2019-02-02T02:32:37.782Z,97.30
2019-02-02T02:33:37.788Z,102.60
2019-02-02T02:34:37.795Z,102.90
2019-02-02T02:35:37.830Z,103.40
2019-02-02T02:36:37.803Z,104.00
2019-02-02T02:37:37.847Z,106.60
2019-02-02T02:38:37.853Z,105.70
2019-02-02T02:39:37.833Z,101.70
2019-02-02T02:40:37.930Z,105.10
2019-02-02T02:41:37.851Z,102.40
2019-02-02T02:42:37.804Z,104.10
2019-02-02T02:43:37.803Z,111.00
2019-02-02T02:44:37.844Z,106.00
2019-02-02T02:45:37.857Z,105.40
2019-02-02T02:46:37.815Z,104.20
2019-02-02T02:47:37.837Z,107.00
2019-02-02T02:48:37.838Z,107.80
2019-02-02T02:49:37.837Z,106.80
2019-02-02T02:50:37.849Z,103.80
2019-02-02T02:51:37.852Z,105.00
2019-02-02T02:52:37.850Z,101.80
2019-02-02T02:53:37.860Z,109.60
2019-02-02T02:54:37.862Z,103.60
2019-02-02T02:55:37.836Z,110.30
2019-02-02T02:56:37.845Z,111.70
2019-02-02T02:57:37.851Z,105.00
2019-02-02T02:58:41.607Z,103.40
2019-02-02T02:59:37.869Z,103.70
2019-02-02T03:00:37.850Z,107.30
2019-02-02T03:01:37.869Z,108.70
2019-02-02T03:02:37.853Z,106.50
2019-02-02T03:03:37.850Z,108.90
2019-02-02T03:04:37.882Z,108.90
2019-02-02T03:05:37.904Z,107.40
2019-02-02T03:06:37.887Z,110.90
2019-02-02T03:07:37.867Z,106.90
2019-02-02T03:08:37.867Z,106.90
2019-02-02T03:09:37.863Z,108.60
2019-02-02T03:10:37.888Z,110.60
2019-02-02T03:11:37.907Z,107.10
2019-02-02T03:12:37.884Z,110.70
2019-02-02T03:13:37.904Z,109.10
2019-02-02T03:14:37.877Z,112.60
2019-02-02T03:15:37.913Z,110.30
2019-02-02T03:16:37.874Z,110.80
2019-02-02T03:17:37.882Z,113.20
2019-02-02T03:18:37.969Z,113.10
2019-02-02T03:19:37.891Z,108.40
2019-02-02T03:20:37.890Z,107.30
2019-02-02T03:21:37.920Z,111.30
2019-02-02T03:22:37.918Z,116.70
2019-02-02T03:23:38.030Z,115.40
2019-02-02T03:24:37.933Z,108.10
2019-02-02T03:25:37.937Z,104.90
2019-02-02T03:26:37.904Z,108.20
2019-02-02T03:27:37.913Z,109.90
2019-02-02T03:28:37.891Z,106.90
2019-02-02T03:29:37.931Z,106.10
2019-02-02T03:30:37.978Z,108.70
2019-02-02T03:31:38.132Z,102.50
2019-02-02T03:32:37.958Z,106.20
2019-02-02T03:33:37.912Z,111.00
2019-02-02T03:34:37.915Z,110.80
2019-02-02T03:35:37.904Z,110.80
2019-02-02T03:36:37.953Z,110.40
2019-02-02T03:37:37.937Z,112.60
2019-02-02T03:38:37.939Z,110.00
2019-02-02T03:39:37.924Z,111.30
2019-02-02T03:40:37.922Z,110.50
2019-02-02T03:41:37.939Z,110.10
2019-02-02T03:42:37.944Z,112.50
2019-02-02T03:43:38.029Z,110.90
2019-02-02T03:44:37.932Z,108.90
2019-02-02T03:45:40.640Z,109.60
2019-02-02T03:46:37.935Z,113.80
2019-02-02T03:47:37.977Z,110.80
2019-02-02T03:48:37.946Z,109.80
2019-02-02T03:49:37.954Z,110.60
2019-02-02T03:50:37.986Z,113.70
2019-02-02T03:51:37.970Z,110.40
2019-02-02T03:52:37.966Z,111.30
2019-02-02T03:53:41.003Z,111.90
2019-02-02T03:54:37.952Z,111.60
2019-02-02T03:55:37.955Z,113.30
2019-02-02T03:56:37.960Z,110.30
2019-02-02T03:57:37.955Z,113.80
2019-02-02T03:58:37.973Z,109.80
2019-02-02T03:59:37.966Z,114.10
2019-02-02T04:00:37.978Z,111.20
2019-02-02T04:01:37.972Z,108.90
2019-02-02T04:02:37.983Z,109.50
2019-02-02T04:03:38.038Z,110.90
2019-02-02T04:04:37.968Z,109.00
2019-02-02T04:05:37.966Z,109.30
2019-02-02T04:06:37.973Z,109.20
2019-02-02T04:07:37.987Z,109.60
2019-02-02T04:08:37.977Z,111.30
2019-02-02T04:09:37.993Z,114.40
2019-02-02T04:10:37.982Z,110.70
2019-02-02T04:11:38.032Z,111.60
2019-02-02T04:12:37.997Z,109.70
2019-02-02T04:13:38.005Z,116.40
2019-02-02T04:14:38.007Z,107.40
2019-02-02T04:15:37.992Z,109.30
2019-02-02T04:16:37.982Z,112.60
2019-02-02T04:17:37.989Z,113.60
2019-02-02T04:18:38.047Z,110.10
2019-02-02T04:19:38.041Z,110.00
2019-02-02T04:20:38.014Z,111.90
2019-02-02T04:21:38.017Z,110.80
2019-02-02T04:22:38.008Z,107.50
2019-02-02T04:23:38.013Z,109.10
2019-02-02T04:24:38.001Z,104.70
2019-02-02T04:25:38.068Z,107.80
2019-02-02T04:26:38.007Z,104.60
2019-02-02T04:27:38.009Z,111.40
2019-02-02T04:28:38.025Z,109.70
2019-02-02T04:29:38.034Z,108.90
2019-02-02T04:30:38.034Z,104.10
2019-02-02T04:31:38.041Z,104.90
2019-02-02T04:32:38.056Z,108.50
2019-02-02T04:33:38.083Z,107.80
2019-02-02T04:34:38.054Z,110.70
2019-02-02T04:35:38.278Z,110.50
2019-02-02T04:36:38.072Z,106.90
2019-02-02T04:37:38.432Z,107.50
2019-02-02T04:38:38.053Z,104.90
2019-02-02T04:39:38.083Z,107.20
2019-02-02T04:40:38.050Z,108.30
2019-02-02T04:41:38.099Z,107.60
2019-02-02T04:42:38.149Z,109.30
2019-02-02T04:43:38.041Z,105.60
2019-02-02T04:44:38.044Z,105.00
2019-02-02T04:45:38.150Z,106.50
2019-02-02T04:46:38.076Z,108.90
2019-02-02T04:47:38.089Z,106.60
2019-02-02T04:48:38.076Z,107.90
2019-02-02T04:49:38.071Z,107.50
2019-02-02T04:50:40.040Z,104.80
2019-02-02T04:51:38.071Z,106.90
2019-02-02T04:52:38.082Z,104.70
2019-02-02T04:53:38.048Z,107.00
2019-02-02T04:54:38.121Z,108.40
2019-02-02T04:55:38.074Z,108.80
2019-02-02T04:56:38.129Z,110.20
2019-02-02T04:57:38.115Z,111.00
2019-02-02T04:58:38.083Z,107.30
2019-02-02T04:59:38.074Z,106.70
2019-02-02T05:00:38.102Z,108.80
2019-02-02T05:01:38.084Z,106.80
2019-02-02T05:02:38.090Z,109.60
2019-02-02T05:03:38.163Z,110.00
2019-02-02T05:04:38.079Z,110.00
2019-02-02T05:05:38.082Z,109.50
2019-02-02T05:06:38.095Z,109.40
2019-02-02T05:07:38.119Z,113.40
2019-02-02T05:08:38.108Z,106.90
2019-02-02T05:09:38.098Z,109.90
2019-02-02T05:10:38.128Z,106.10
2019-02-02T05:11:38.133Z,109.10
2019-02-02T05:12:38.123Z,112.20
2019-02-02T05:13:38.186Z,111.30
2019-02-02T05:14:38.126Z,108.90
2019-02-02T05:15:38.105Z,108.90
2019-02-02T05:16:38.108Z,111.50
2019-02-02T05:17:38.163Z,107.20
2019-02-02T05:18:38.170Z,107.60
2019-02-02T05:19:38.125Z,107.20
2019-02-02T05:20:38.143Z,108.70
2019-02-02T05:21:38.150Z,108.60
2019-02-02T05:22:38.284Z,110.10
2019-02-02T05:23:38.310Z,108.20
2019-02-02T05:24:38.350Z,111.30
2019-02-02T05:25:38.121Z,111.00
2019-02-02T05:26:38.193Z,108.80
2019-02-02T05:27:38.131Z,107.30
2019-02-02T05:28:38.260Z,108.30
2019-02-02T05:29:41.664Z,110.40
2019-02-02T05:30:38.173Z,105.00
2019-02-02T05:31:38.175Z,107.80
2019-02-02T05:32:38.161Z,108.00
2019-02-02T05:33:38.162Z,105.80
2019-02-02T05:34:38.159Z,107.80
2019-02-02T05:35:38.182Z,108.30
2019-02-02T05:36:38.129Z,108.40
2019-02-02T05:37:38.322Z,106.70
2019-02-02T05:38:38.227Z,105.60
2019-02-02T05:39:38.697Z,107.90
2019-02-02T05:40:38.217Z,108.50
2019-02-02T05:41:38.179Z,107.60
2019-02-02T05:42:38.334Z,106.20
2019-02-02T05:43:38.444Z,105.90
2019-02-02T05:44:38.198Z,102.60
2019-02-02T05:45:38.785Z,104.80
2019-02-02T05:46:38.688Z,101.90
2019-02-02T05:47:38.172Z,104.60
2019-02-02T05:48:38.880Z,102.90
2019-02-02T05:49:38.302Z,107.00
2019-02-02T05:50:38.386Z,105.60
2019-02-02T05:51:38.461Z,103.90
2019-02-02T05:52:38.504Z,105.80
2019-02-02T05:53:38.270Z,105.30
2019-02-02T05:54:38.210Z,104.70
2019-02-02T05:55:38.374Z,105.00
2019-02-02T05:56:38.227Z,110.40
2019-02-02T05:57:38.287Z,107.80
2019-02-02T05:58:38.208Z,106.00
2019-02-02T05:59:38.215Z,106.40
2019-02-02T06:00:38.411Z,105.90
2019-02-02T06:01:38.452Z,107.70
2019-02-02T06:02:38.267Z,105.20
2019-02-02T06:03:38.198Z,101.90
2019-02-02T06:04:38.204Z,103.50
2019-02-02T06:05:38.227Z,102.70
2019-02-02T06:06:38.204Z,103.60
2019-02-02T06:07:38.214Z,103.00
2019-02-02T06:08:38.204Z,102.60
2019-02-02T06:09:38.211Z,105.90
2019-02-02T06:10:38.221Z,105.10
2019-02-02T06:11:38.238Z,107.10
2019-02-02T06:12:38.445Z,107.10
2019-02-02T06:13:38.227Z,107.90
2019-02-02T06:14:38.212Z,106.00
2019-02-02T06:15:38.223Z,104.80
2019-02-02T06:16:38.239Z,108.80
2019-02-02T06:17:38.246Z,106.70
2019-02-02T06:18:38.247Z,104.70
2019-02-02T06:19:38.286Z,107.60
2019-02-02T06:20:38.231Z,106.60
2019-02-02T06:21:38.311Z,103.70
2019-02-02T06:22:38.253Z,105.80
2019-02-02T06:23:38.271Z,100.50
2019-02-02T06:24:38.230Z,103.60
2019-02-02T06:25:38.238Z,105.60
2019-02-02T06:26:38.275Z,106.00
2019-02-02T06:27:38.291Z,104.70
2019-02-02T06:28:38.315Z,104.60
2019-02-02T06:29:38.256Z,101.60
2019-02-02T06:30:38.287Z,105.20
2019-02-02T06:31:38.251Z,106.80
2019-02-02T06:32:38.245Z,107.90
2019-02-02T06:33:38.371Z,106.80
2019-02-02T06:34:38.256Z,103.60
2019-02-02T06:35:38.297Z,101.90
2019-02-02T06:36:38.309Z,106.60
2019-02-02T06:37:38.296Z,104.70
2019-02-02T06:38:38.324Z,108.70
2019-02-02T06:39:38.276Z,106.80
2019-02-02T06:40:38.303Z,105.80
2019-02-02T06:41:38.274Z,103.40
2019-02-02T06:42:38.290Z,105.10
2019-02-02T06:43:38.298Z,106.50
2019-02-02T06:44:38.779Z,104.10
2019-02-02T06:45:38.318Z,103.90
2019-02-02T06:46:43.655Z,107.80
2019-02-02T06:47:38.326Z,106.20
2019-02-02T06:48:38.322Z,108.60
2019-02-02T06:49:38.324Z,107.30
2019-02-02T06:50:38.334Z,105.80
2019-02-02T06:51:38.327Z,109.00
2019-02-02T06:52:38.320Z,107.10
2019-02-02T06:53:38.360Z,109.30
2019-02-02T06:54:38.373Z,107.80
2019-02-02T06:55:38.290Z,108.20
2019-02-02T06:56:38.311Z,106.30
2019-02-02T06:57:38.337Z,109.20
2019-02-02T06:58:38.321Z,110.10
2019-02-02T06:59:38.362Z,108.80
2019-02-02T07:00:38.400Z,109.80
2019-02-02T07:01:38.370Z,115.10
2019-02-02T07:02:38.338Z,110.80
2019-02-02T07:03:38.373Z,108.20
2019-02-02T07:04:38.411Z,111.60
2019-02-02T07:05:38.412Z,113.90
2019-02-02T07:06:38.330Z,110.30
2019-02-02T07:07:38.423Z,110.40
2019-02-02T07:08:38.330Z,108.20
2019-02-02T07:09:38.349Z,110.80
2019-02-02T07:10:38.405Z,110.90
2019-02-02T07:11:38.407Z,106.50
2019-02-02T07:12:38.348Z,106.90
2019-02-02T07:13:38.373Z,104.00
2019-02-02T07:14:38.354Z,111.00
2019-02-02T07:15:38.391Z,109.00
2019-02-02T07:16:38.388Z,107.40
2019-02-02T07:17:38.417Z,106.50
2019-02-02T07:18:38.387Z,107.90
2019-02-02T07:19:38.353Z,109.30
2019-02-02T07:20:38.363Z,105.90
2019-02-02T07:21:38.361Z,111.80
2019-02-02T07:22:38.422Z,105.90
2019-02-02T07:23:39.180Z,117.00
2019-02-02T07:24:38.375Z,108.90
2019-02-02T07:25:38.514Z,112.90
2019-02-02T07:26:38.353Z,113.90
2019-02-02T07:27:38.455Z,109.70
2019-02-02T07:28:38.448Z,108.10
2019-02-02T07:29:38.462Z,114.60
2019-02-02T07:30:38.429Z,114.50
2019-02-02T07:31:38.389Z,124.40
2019-02-02T07:32:38.400Z,107.60
2019-02-02T07:33:39.319Z,105.90
2019-02-02T07:34:38.442Z,110.80
2019-02-02T07:35:38.510Z,107.80
2019-02-02T07:36:38.398Z,106.90
2019-02-02T07:37:38.432Z,108.20
2019-02-02T08:07:55.376Z,110.50
2019-02-02T08:08:55.387Z,109.70
2019-02-02T08:09:55.573Z,111.90
2019-02-02T08:10:55.463Z,111.90
2019-02-02T08:11:55.366Z,109.50
2019-02-02T08:12:55.363Z,111.50
2019-02-02T08:13:55.381Z,107.50
2019-02-02T08:14:55.370Z,109.20
2019-02-02T08:15:55.410Z,108.20
2019-02-02T08:16:55.383Z,117.70
2019-02-02T08:17:55.407Z,113.70
2019-02-02T08:18:55.425Z,112.90
2019-02-02T08:19:55.407Z,112.90
2019-02-02T08:20:55.583Z,111.10
2019-02-02T08:21:55.374Z,112.50
2019-02-02T08:22:56.586Z,111.60
2019-02-02T08:23:55.399Z,111.20
2019-02-02T08:24:55.408Z,107.70
2019-02-02T08:25:56.323Z,109.70
2019-02-02T08:26:56.226Z,107.50
2019-02-02T08:27:55.371Z,109.60
2019-02-02T08:28:55.411Z,112.50
2019-02-02T08:29:55.418Z,110.30
2019-02-02T08:30:55.388Z,109.20
2019-02-02T08:31:55.423Z,111.40
2019-02-02T08:32:55.416Z,111.90
2019-02-02T08:33:55.398Z,106.70
2019-02-02T08:34:56.959Z,107.20
2019-02-02T08:35:55.529Z,109.10
2019-02-02T08:36:55.437Z,112.40
2019-02-02T08:37:55.391Z,109.80
2019-02-02T08:38:55.438Z,111.20
2019-02-02T08:39:55.407Z,112.30
2019-02-02T08:40:55.442Z,109.70
2019-02-02T08:41:55.422Z,111.20
2019-02-02T08:42:55.412Z,110.70
2019-02-02T08:43:55.429Z,109.50
2019-02-02T08:44:55.430Z,107.80
2019-02-02T08:45:55.480Z,106.90
2019-02-02T08:46:55.450Z,109.10
2019-02-02T08:47:55.461Z,107.70
2019-02-02T08:48:55.554Z,106.10
2019-02-02T08:49:55.432Z,101.20
2019-02-02T08:50:55.490Z,104.60
2019-02-02T08:51:55.477Z,109.60
2019-02-02T08:52:55.764Z,106.30
2019-02-02T08:53:55.505Z,105.50
2019-02-02T08:54:55.492Z,112.70
2019-02-02T08:55:55.481Z,106.30
2019-02-02T08:56:55.568Z,110.90
2019-02-02T08:57:55.522Z,113.30
2019-02-02T08:58:55.479Z,109.80
2019-02-02T08:59:55.504Z,109.70
2019-02-02T09:01:03.842Z,105.10
2019-02-02T09:01:55.498Z,105.60
2019-02-02T09:02:55.472Z,110.60
2019-02-02T09:03:55.558Z,108.80
2019-02-02T09:04:55.498Z,111.70
2019-02-02T09:05:55.485Z,111.80
2019-02-02T09:06:55.486Z,110.80
2019-02-02T09:07:55.554Z,113.10
2019-02-02T09:08:55.504Z,106.50
2019-02-02T09:10:55.619Z,108.70
2019-02-02T09:11:55.532Z,105.70
2019-02-02T09:12:55.856Z,109.60
2019-02-02T09:13:55.548Z,111.10
2019-02-02T09:14:55.527Z,114.00
2019-02-02T09:15:55.598Z,111.40
2019-02-02T09:16:55.503Z,109.70
2019-02-02T09:17:55.503Z,113.60
2019-02-02T09:18:55.556Z,110.60
2019-02-02T09:19:55.510Z,110.40
2019-02-02T09:20:55.532Z,103.80
2019-02-02T09:21:55.567Z,105.70
2019-02-02T09:23:03.855Z,106.70
2019-02-02T09:23:55.603Z,110.90
2019-02-02T09:24:55.542Z,111.40
2019-02-02T09:25:55.512Z,111.10
2019-02-02T09:26:55.512Z,108.00
2019-02-02T09:27:55.520Z,109.60
2019-02-02T09:28:55.647Z,115.90
2019-02-02T09:29:55.553Z,110.90
2019-02-02T09:30:55.598Z,117.50
2019-02-02T09:31:55.565Z,112.80
2019-02-02T09:32:55.734Z,110.10
2019-02-02T09:33:55.594Z,114.00
2019-02-02T09:34:55.624Z,111.10
2019-02-02T09:35:55.605Z,111.30
2019-02-02T09:36:55.558Z,110.40
2019-02-02T09:37:57.308Z,107.30
2019-02-02T09:38:55.595Z,115.00
2019-02-02T09:39:55.723Z,114.50
2019-02-02T09:40:55.619Z,111.40
2019-02-02T09:41:55.720Z,108.90
2019-02-02T09:42:55.597Z,117.00
2019-02-02T09:43:55.588Z,116.00
2019-02-02T09:44:55.585Z,112.80
2019-02-02T09:45:55.708Z,118.60
2019-02-02T09:46:55.571Z,114.40
2019-02-02T09:47:55.647Z,109.40
2019-02-02T09:48:57.822Z,109.50
2019-02-02T09:49:55.608Z,113.70
2019-02-02T09:50:55.634Z,113.80
2019-02-02T09:51:55.602Z,112.70
2019-02-02T09:52:55.608Z,112.30
2019-02-02T09:53:55.595Z,112.20
2019-02-02T09:54:55.684Z,110.90
2019-02-02T09:55:56.311Z,113.60
2019-02-02T09:56:55.684Z,111.40
2019-02-02T09:57:55.756Z,110.40
2019-02-02T09:58:55.599Z,114.30
2019-02-02T09:59:55.651Z,106.10
2019-02-02T10:00:55.628Z,109.80
2019-02-02T10:01:55.669Z,105.50
2019-02-02T10:02:55.631Z,110.40
2019-02-02T10:03:55.693Z,110.00
2019-02-02T10:04:55.639Z,109.10
2019-02-02T10:05:55.677Z,108.70
2019-02-02T10:06:55.668Z,113.10
2019-02-02T10:07:55.663Z,115.00
2019-02-02T10:08:55.630Z,114.90
2019-02-02T10:09:55.669Z,115.70
2019-02-02T10:10:55.724Z,117.50
2019-02-02T10:11:55.647Z,116.90
2019-02-02T10:12:55.680Z,115.80
2019-02-02T10:13:55.643Z,114.90
2019-02-02T10:14:55.646Z,114.50
2019-02-02T10:15:55.700Z,117.00
2019-02-02T10:16:55.799Z,117.30
2019-02-02T10:17:55.713Z,125.00
2019-02-02T10:18:55.691Z,121.50
2019-02-02T10:19:55.682Z,125.80
2019-02-02T10:21:03.729Z,122.60
2019-02-02T10:21:55.714Z,122.30
2019-02-02T10:22:56.269Z,114.10
2019-02-02T10:23:55.739Z,114.50
2019-02-02T10:24:55.713Z,115.10
2019-02-02T10:25:55.683Z,108.20
2019-02-02T10:26:55.697Z,110.00
2019-02-02T10:27:56.833Z,116.10
2019-02-02T10:28:55.789Z,111.60
2019-02-02T10:29:55.735Z,113.20
2019-02-02T10:30:55.967Z,106.50
2019-02-02T10:31:55.727Z,109.10
2019-02-02T10:32:55.724Z,110.10
2019-02-02T10:33:55.776Z,116.60
2019-02-02T10:34:55.729Z,112.40
2019-02-02T10:35:55.721Z,113.30
2019-02-02T10:36:55.708Z,115.80
2019-02-02T10:37:55.712Z,110.20
2019-02-02T10:38:55.767Z,111.80
2019-02-02T10:39:55.769Z,111.00
2019-02-02T10:40:55.729Z,115.80
2019-02-02T10:41:55.899Z,110.50
2019-02-02T10:42:55.806Z,116.60
2019-02-02T10:43:57.062Z,118.00
2019-02-02T10:44:55.916Z,116.90
2019-02-02T10:45:55.763Z,118.10
2019-02-02T10:46:55.901Z,118.10
2019-02-02T10:47:55.804Z,116.20
2019-02-02T10:48:55.781Z,112.80
2019-02-02T10:49:55.852Z,119.60
2019-02-02T10:50:55.806Z,123.30
2019-02-02T10:51:55.809Z,118.60
2019-02-02T10:52:55.826Z,116.90
2019-02-02T10:53:55.890Z,117.20
2019-02-02T10:54:55.828Z,118.50
2019-02-02T10:55:55.789Z,117.50
2019-02-02T10:56:55.952Z,118.60
2019-02-02T10:57:55.854Z,120.30
2019-02-02T10:58:55.816Z,122.00
2019-02-02T10:59:55.829Z,121.70
2019-02-02T11:00:55.924Z,122.70
2019-02-02T11:01:55.838Z,120.50
2019-02-02T11:02:55.926Z,111.30
2019-02-02T11:03:55.842Z,113.80
2019-02-02T11:04:55.866Z,109.70
2019-02-02T11:05:55.917Z,117.60
2019-02-02T11:06:56.019Z,113.40
2019-02-02T11:07:55.884Z,114.60
2019-02-02T11:08:55.863Z,105.80
2019-02-02T11:09:55.824Z,105.10
2019-02-02T11:10:56.013Z,107.20
2019-02-02T11:11:55.861Z,110.00
2019-02-02T11:12:56.062Z,107.30
2019-02-02T11:13:55.913Z,107.90
2019-02-02T11:14:55.950Z,113.00
2019-02-02T11:15:55.873Z,115.50
2019-02-02T11:16:55.965Z,115.10
2019-02-02T11:17:56.026Z,116.00
2019-02-02T11:18:55.934Z,118.40
2019-02-02T11:19:56.119Z,117.10
2019-02-02T11:20:56.130Z,121.00
2019-02-02T11:21:55.865Z,118.70
2019-02-02T11:22:55.972Z,117.30
2019-02-02T11:23:55.925Z,114.50
2019-02-02T11:24:55.933Z,119.20
2019-02-02T11:25:55.901Z,116.40
2019-02-02T11:26:55.966Z,118.20
2019-02-02T11:27:55.925Z,114.40
2019-02-02T11:28:56.071Z,115.70
2019-02-02T11:29:55.950Z,115.70
2019-02-02T11:30:55.895Z,119.20
2019-02-02T11:32:02.475Z,116.90
2019-02-02T11:32:55.902Z,118.60
2019-02-02T11:33:55.942Z,115.40
2019-02-02T11:34:55.922Z,118.10
2019-02-02T11:35:55.912Z,118.90
2019-02-02T11:36:55.963Z,120.00
2019-02-02T11:37:56.022Z,119.80
2019-02-02T11:38:55.951Z,115.10
2019-02-02T11:39:55.914Z,112.70
2019-02-02T11:40:55.918Z,114.10
2019-02-02T11:41:55.942Z,108.00
2019-02-02T11:42:55.923Z,109.80
2019-02-02T11:43:55.943Z,114.90
2019-02-02T11:44:55.936Z,115.60
2019-02-02T11:45:56.028Z,114.10
2019-02-02T11:46:55.954Z,115.80
2019-02-02T11:47:55.952Z,116.10
2019-02-02T11:48:56.057Z,116.20
2019-02-02T11:49:55.957Z,117.60
2019-02-02T11:50:55.955Z,118.00
2019-02-02T11:51:55.982Z,122.70
2019-02-02T11:52:55.982Z,121.40
2019-02-02T11:53:56.005Z,119.00
2019-02-02T11:54:56.009Z,123.80
2019-02-02T11:55:55.993Z,122.10
2019-02-02T11:56:55.982Z,118.90
2019-02-02T11:57:55.983Z,116.70
2019-02-02T11:58:55.978Z,118.70
2019-02-02T11:59:56.086Z,117.30
2019-02-02T12:00:55.989Z,116.60
2019-02-02T12:01:56.103Z,112.70
2019-02-02T12:02:55.994Z,116.80
2019-02-02T12:03:56.018Z,115.80
2019-02-02T12:04:56.028Z,119.60
2019-02-02T12:05:56.195Z,124.20
2019-02-02T12:06:56.249Z,128.00
2019-02-02T12:07:56.018Z,123.10
2019-02-02T12:08:56.061Z,120.80
2019-02-02T12:09:56.025Z,118.10
2019-02-02T12:10:56.060Z,115.40
2019-02-02T12:11:56.066Z,116.30
2019-02-02T12:12:57.294Z,120.80
2019-02-02T12:13:56.075Z,119.90
2019-02-02T12:14:56.982Z,123.00
2019-02-02T12:15:56.067Z,120.10
2019-02-02T12:16:56.107Z,116.30
2019-02-02T12:17:56.080Z,116.10
2019-02-02T12:18:56.083Z,117.50
2019-02-02T12:19:56.085Z,117.20
2019-02-02T12:20:56.214Z,121.90
2019-02-02T12:21:56.223Z,116.70
2019-02-02T12:22:56.294Z,124.60
2019-02-02T12:23:56.076Z,124.50
2019-02-02T12:24:56.071Z,119.20
2019-02-02T12:25:56.261Z,118.30
2019-02-02T12:26:56.059Z,121.40
2019-02-02T12:27:56.070Z,120.90
2019-02-02T12:28:56.141Z,121.50
2019-02-02T12:29:57.912Z,123.70
2019-02-02T12:30:56.067Z,120.40
2019-02-02T12:31:56.119Z,122.60
2019-02-02T12:32:56.083Z,122.60
2019-02-02T12:33:56.079Z,125.10
2019-02-02T12:34:56.260Z,122.50
2019-02-02T12:35:56.293Z,120.50
2019-02-02T12:36:56.205Z,119.30
2019-02-02T12:37:56.195Z,122.30
2019-02-02T12:38:56.092Z,121.60
2019-02-02T12:39:56.229Z,129.50
2019-02-02T12:40:56.121Z,123.60
2019-02-02T12:41:56.106Z,123.00
2019-02-02T12:42:56.189Z,122.90
2019-02-02T12:43:56.153Z,120.60
2019-02-02T12:44:56.925Z,120.10
2019-02-02T12:45:56.136Z,123.30
2019-02-02T12:46:56.125Z,123.10
2019-02-02T12:47:56.157Z,124.60
2019-02-02T12:48:56.130Z,125.60
2019-02-02T12:49:56.263Z,123.00
2019-02-02T12:50:56.177Z,124.30
2019-02-02T12:51:56.138Z,128.70
2019-02-02T12:52:56.143Z,124.10
2019-02-02T12:53:56.142Z,122.10
2019-02-02T12:54:56.230Z,124.60
2019-02-02T12:55:56.161Z,123.00
2019-02-02T12:56:56.163Z,123.90
2019-02-02T12:57:56.179Z,125.20
2019-02-02T12:58:56.167Z,119.90
2019-02-02T12:59:56.904Z,126.10
2019-02-02T13:00:56.191Z,117.20
2019-02-02T13:01:56.201Z,123.90
2019-02-02T13:02:56.194Z,125.40
2019-02-02T13:04:01.818Z,122.00